HADT 23/03/2019 - 54,5 Km
Place Nom Prénom Temps Vitesse Allure Place. Cat. Cat.
1 DESCAMPS FLORIAN 1079 5:12:59 10,4 5:44 1 S
2 DUNKERBECK THOMAS 1099 5:26:50 10,0 5:59 1 V1
3 VAN DIJK MICHEL 1281 5:34:00 9,8 6:07 2 S
4 MATHEUS JELLE 1198 5:34:19 9,8 6:08 3 S
5 EISENHUTH PIERRE 1101 5:37:42 9,7 6:11 4 S
6 GRIFGNEE CHRISTOPHE 1134 5:40:00 9,6 6:14 5 S
7 BARREZ WALTER 1007 5:43:06 9,5 6:17 2 V1
8 DE WEVER AAIKE 1085 5:45:41 9,5 6:20 3 V1
9 BRUWIER MARTIN 1031 5:48:01 9,4 6:23 6 S
10 LAFFINEUR JÉRÔME 1163 5:52:00 9,3 6:27 7 S
11 DE CLERCK JAN 1056 5:57:17 9,2 6:33 8 S
12 KEUPPENS BENNY 1159 5:59:27 9,1 6:35 4 V1
13 VAN DIJK STEFAN 1282 6:01:30 9,0 6:37 9 S
14 VERHAEGHE MICHIEL 1289 6:07:06 8,9 6:44 10 S
15 ESCOFIER YANNICK 1106 6:11:34 8,8 6:49 11 S
16 BRAGA ANDRÉA 1026 6:11:39 8,8 6:49 12 S
17 BONHOMME JEAN-ROCH 1017 6:12:22 8,8 6:49 13 S
18 DE NAYER JAN 1073 6:13:33 8,8 6:51 14 S
19 VAN BOS JAN 1270 6:13:34 8,8 6:51 15 S
20 TYS MAXIME 1267 6:17:01 8,7 6:55 16 S
21 CORNU-LANGY ANTONIN 1048 6:18:58 8,6 6:57 17 S
22 HALLÉ YANN 1139 6:19:24 8,6 6:57 5 V1
23 DE CLERCQ JURGEN 1058 6:22:47 8,5 7:01 6 V1
24 VANWYNSBERGHE MATTHIAS 1286 6:24:25 8,5 7:03 18 S
25 GEORIS SEBASTIEN 1119 6:27:30 8,4 7:06 7 V1
26 CASTROVIEJO FERNANDEZ MIGUEL 1037 6:33:21 8,3 7:13 19 S
27 PINEAU SEBASTIEN 1218 6:35:17 8,3 7:15 8 V1
28 REGAERT DONAT 1226 6:36:12 8,3 7:16 20 S
29 JOASSART MARTIN 1157 6:38:09 8,2 7:18 9 V1
30 DEROOZ GREGORY 1078 6:38:29 8,2 7:18 21 S
31 CURUTCHET JULIEN 1049 6:38:53 8,2 7:19 22 S
32 DUMONT RAPHAEL 1098 6:39:59 8,2 7:20 23 S
33 SIMONIS FABIAN 1253 6:41:05 8,2 7:21 24 S
34 REITSMA JOHAN 1227 6:42:06 8,1 7:22 25 S
35 JACQUES EDDY 1154 6:42:30 8,1 7:23 10 V1
36 CASTELEIN BRAM 1036 6:42:52 8,1 7:23 26 S
37 ROZENBERG SANDRINE 1237 6:42:59 8,1 7:23 1 A2
38 PONCIN RENAUD 1221 6:43:11 8,1 7:23 27 S
39 BRANTS BOB 1027 6:43:17 8,1 7:23 11 V1
40 DAMBLON JOHNATHAN 1052 6:43:54 8,1 7:24 12 V1
41 MUNAUT JEREMY 1204 6:43:56 8,1 7:24 13 V1
42 RULOT BENOIT 1305 6:46:37 8,0 7:27 HSC
43 HENDRICK MARTIN 1143 6:47:35 8,0 7:28 28 S
44 PETRIC STELLA 1215 6:47:37 8,0 7:28 2 A2
45 MACHIELS OLIVIER 1193 6:49:09 8,0 7:30 29 S
46 GODON ANNE 1127 6:49:15 8,0 7:30 3 A2
47 LALLEMENT LUC 1165 6:52:07 7,9 7:33 30 S
48 SCHEIBE MARCO 1246 6:52:10 7,9 7:33 31 S
49 GAIN ADRIEN 1117 6:53:35 7,9 7:35 32 S
50 DECHAMPS RAOUL 1055 6:55:38 7,9 7:37 14 V1
51 KRAUCH BRUNO 1162 6:56:15 7,9 7:38 15 V1
52 DOHN PETER 1091 6:57:47 7,8 7:39 33 S
53 LECOQ GAELLE 1173 6:57:48 7,8 7:39 1 A1
54 HARDENNE VALÉRY 1141 6:58:16 7,8 7:40 16 V1
55 VAN LANCKER VIRGIL 1284 6:58:19 7,8 7:40 34 S
56 VAN DER MEIJDEN ANDY 1279 6:58:50 7,8 7:41 1 V2
57 WANTE GUILLAUME 1297 7:00:12 7,8 7:42 17 V1
58 WAUTERS DIRK 1299 7:00:18 7,8 7:42 18 V1
59 FAUT IWAN 1113 7:00:20 7,8 7:42 35 S
60 CLAES DIETER 1039 7:01:05 7,8 7:43 36 S
61 LALLEMENT CÉDRIC 1164 7:01:11 7,8 7:43 37 S
62 SCHALKX RADMER 1245 7:02:23 7,7 7:45 19 V1
63 DELBROUCK THOMAS 1069 7:03:24 7,7 7:46 38 S
64 DAELE JEAN-MARC 1310 7:04:36 7,7 7:47 20 V1
65 HEYNS CHRISTOPHE 1147 7:07:51 7,6 7:51 21 V1
66 ROBERT YVES 1231 7:08:58 7,6 7:52 22 V1
67 WANSART NICOLAS 1296 7:11:26 7,6 7:54 39 S
68 SEZNEC VINCENT 1252 7:11:30 7,6 7:55 40 S
69 FAUCONNIER JEAN-FRANÇOIS 1111 7:12:14 7,6 7:55 2 V2
70 VERBRUGGEN PHILIPPE 1287 7:12:19 7,6 7:55 23 V1
71 DODRIMONT CÉDRIC 1090 7:16:10 7,5 8:00 41 S
72 SCHUSTER NICOLAS 1250 7:16:10 7,5 8:00 42 S
73 PERRIN RÉMI 1214 7:16:10 7,5 8:00 24 V1
74 ROOSENS FRANS 1236 7:16:58 7,5 8:01 43 S
75 SEVENS QUENTIN 1251 7:16:58 7,5 8:01 44 S
76 PIRET GAUTHIER 1219 7:17:10 7,5 8:01 45 S
77 DEGAILLE GUILLAUME 1060 7:17:22 7,5 8:01 46 S
78 NELISSEN JOHNY 1205 7:19:03 7,4 8:03 25 V1
79 DEFECHEREUX OLIVIER 1059 7:20:00 7,4 8:04 26 V1
80 LUCAS ROMUALD 1307 7:20:02 7,4 8:04 27 V1
81 LIETAER ISABELLE 1183 7:20:48 7,4 8:05 2 A1
82 DEVOLDRE DIRK 1084 7:20:51 7,4 8:05 3 V2
83 BOERMAN RONALD 1016 7:21:59 7,4 8:06 28 V1
84 JONKERS MENNO 1308 7:23:19 7,4 8:08 29 V1
85 THEATE BENOIT 1260 7:24:41 7,4 8:09 4 V2
86 FRANCOIS THIBAUT 1116 7:24:42 7,4 8:09 47 S
87 HAEGHENS ALAIN-BRICE 1138 7:24:47 7,4 8:09 48 S
88 SON CHARLES 1255 7:25:06 7,3 8:10 5 V2
89 EYEN PIERRE 1109 7:25:27 7,3 8:10 30 V1
90 GUEUNING BENOÎT 1136 7:25:45 7,3 8:10 49 S
91 OGER STEPHAN 1210 7:26:19 7,3 8:11 50 S
92 LENAERTS EDWIN 1179 7:27:50 7,3 8:13 6 V2
93 VILLERS STEPHANE 1292 7:28:40 7,3 8:13 31 V1
94 LOMRÉ FRED 1184 7:28:43 7,3 8:14 32 V1
95 ESTIN DAVID 1107 7:29:28 7,3 8:14 33 V1
96 DE HAES OLIVIER 1064 7:30:17 7,3 8:15 7 V2
97 DELAIT OLIVIER 1068 7:30:52 7,3 8:16 8 V2
98 MICHEELS ARNAUD 1201 7:32:15 7,2 8:17 51 S
99 HENRY VALENTIN 1144 7:35:45 7,2 8:21 52 S
100 DESTOOP PETER 1083 7:37:05 7,2 8:23 34 V1
101 JORDENS ROMAIN 1158 7:39:22 7,1 8:25 53 S
102 DE MEYER BEN 1071 7:39:38 7,1 8:26 54 S
103 IMBO INEKE 1152 7:39:39 7,1 8:26 3 A1
104 COMEL FREDERIC 1046 7:40:33 7,1 8:27 9 V2
105 LEDOUX THIERRY 1174 7:40:34 7,1 8:27 10 V2
106 RUWET NICOLAS 1238 7:40:34 7,1 8:27 55 S
107 CARRETTE CÉDRIC 1035 7:40:34 7,1 8:27 35 V1
108 HESBOIS BERNARD 1146 7:41:21 7,1 8:27 36 V1
109 DIDION JEAN-FRANÇOIS 1088 7:44:03 7,0 8:30 37 V1
110 BARTOSZUK ROMAN 1008 7:45:37 7,0 8:32 38 V1
111 TRIQUET PAUL 1265 7:45:43 7,0 8:32 56 S
112 VAN DER MEERSCH ANDY 1278 7:46:55 7,0 8:34 39 V1
113 POSTELMANS JURGEN 1223 7:47:34 7,0 8:34 40 V1
114 UYTTERSPROT MOUT 1269 7:48:21 7,0 8:35 41 V1
115 VAN HEUSDEN OLIVIER 1283 7:50:50 6,9 8:38 42 V1
116 BELLEZZA RICHARD 1010 7:53:52 6,9 8:41 43 V1
117 BINETRUY ARNAUD 1012 7:53:53 6,9 8:41 44 V1
118 BONNET DAMIEN 1018 7:54:22 6,9 8:42 45 V1
119 DE POORTER SAMUEL 1076 7:54:22 6,9 8:42 46 V1
120 RABIN CHRISTOPHE 1225 7:54:51 6,9 8:42 11 V2
121 DE MAN CAROLINE 1070 7:54:57 6,9 8:42 4 A1
122 DANLOY MICHAEL 1053 7:55:02 6,9 8:42 57 S
123 JENARD GREGORY 1156 7:55:24 6,9 8:43 58 S
124 DEWEZ MICHAËL 1086 7:58:37 6,8 8:46 59 S
125 GILLET THOMAS 1125 8:00:15 6,8 8:48 47 V1
126 WAGNER FRANK 1295 8:01:10 6,8 8:49 48 V1
127 HOUSSA DIMITRI 1149 8:02:40 6,8 8:51 60 S
128 DUGARD VIRGINIE 1096 8:03:21 6,8 8:52 4 A2
129 MONTIGEL BERTRAND 1202 8:03:49 6,8 8:52 61 S
130 WILLETTE JEANNE 1303 8:04:39 6,7 8:53 5 A1
131 CABRERA OLIVIER 1033 8:04:39 6,7 8:53 62 S
132 ANDRIES MICHAEL 1004 8:11:36 6,7 9:01 63 S
133 DUCARME YANNICK 1094 8:11:54 6,6 9:01 49 V1
134 RENSONNET DIDIER 1229 8:13:22 6,6 9:03 50 V1
135 PENAY THIERRY 1212 8:13:22 6,6 9:03 51 V1
136 BIERMANS PHILIPPE 1011 8:13:22 6,6 9:03 52 V1
137 DAHMEN CAROLE 1051 8:13:22 6,6 9:03 6 A1
138 LUKAS STEFAN 1188 8:13:30 6,6 9:03 53 V1
139 DRAAIJER KLAAS 1092 8:13:30 6,6 9:03 54 V1
140 COMBLE KEVIN 1045 8:13:43 6,6 9:03 64 S
141 SCALCO FABIAN 1243 8:13:49 6,6 9:03 65 S
142 LUST GREGORY 1189 8:14:05 6,6 9:03 55 V1
143 MASSART JULIEN 1197 8:15:23 6,6 9:05 66 S
144 FABRE LIONEL 1110 8:16:05 6,6 9:06 56 V1
145 MERGAERTS BENNY 1200 8:17:10 6,6 9:07 12 V2
146 CUVELIER SERGE 1050 8:17:22 6,6 9:07 13 V2
147 NISOL JULIEN 1209 8:19:40 6,5 9:10 67 S
148 VAN DEN ESSEN TON 1276 8:20:21 6,5 9:10 14 V2
149 WETZELS SANDER 1301 8:20:45 6,5 9:11 57 V1
150 DESCHAMPS EMMANUEL 1080 8:21:08 6,5 9:11 58 V1
151 LORIDAN JEROME 1186 8:21:08 6,5 9:11 59 V1
152 HUMEZ FRANÇOIS 1151 8:21:08 6,5 9:11 68 S
153 FAUQUENOY SYLVAIN 1112 8:21:28 6,5 9:12 69 S
154 SPIROS GARNELIS 1256 8:21:28 6,5 9:12 60 V1
155 GEORGES GUILLAUME 1118 8:22:28 6,5 9:13 61 V1
156 WILPUTTE SEBASTIEN 1304 8:25:19 6,5 9:16 62 V1
157 PERDRIX SERGE 1213 8:29:28 6,4 9:20 15 V2
158 DEGAND ALINE 1061 8:29:28 6,4 9:20 7 A1
159 CACHART OLIVIER 1034 8:29:28 6,4 9:20 16 V2
160 GEVENOIS NICOLAS 1121 8:30:07 6,4 9:21 70 S
161 DEMOULIN BERNARD 1072 8:30:08 6,4 9:21 63 V1
162 DROUMART DAMIEN 1093 8:30:29 6,4 9:22 71 S
163 ROMAIN REGIS 1234 8:34:41 6,4 9:26 64 V1
164 ROMAIN RUDI 1235 8:34:41 6,4 9:26 17 V2
165 VERELLEN FRANKY 1288 8:38:22 6,3 9:30 65 V1
166 ANDRAE WOLFRAM 1003 8:38:47 6,3 9:31 66 V1
167 EVRARD YVES 1108 8:40:20 6,3 9:32 67 V1
168 VERSTICHEL ALAIN 1291 8:41:09 6,3 9:33 18 V2
169 BAECHER SEBASTIEN 1005 8:41:18 6,3 9:33 68 V1
170 VROLIX MYRIAM 1293 8:41:36 6,3 9:34 5 A2
171 ENGELEN ELKE 1104 8:41:36 6,3 9:34 8 A1
172 LUYCKX JACQUES 1191 8:41:52 6,3 9:34 19 V2
173 DARGENT STIVE 1054 8:42:00 6,3 9:34 72 S
174 LATTAIGNANT STÉPHANE 1172 8:43:38 6,2 9:36 69 V1
175 LE GOFF VINCENT 1176 8:44:17 6,2 9:37 70 V1
176 JANSSENS JEROEN 1155 8:44:17 6,2 9:37 20 V2
177 VAN OVEN BARRY 1285 8:45:46 6,2 9:38 71 V1
178 BROUNS PIM 1030 8:45:46 6,2 9:38 72 V1
179 GIACCHETTA STÉPHANE 1123 8:47:07 6,2 9:40 73 V1
180 SCHILS PAULINE 1247 8:47:07 6,2 9:40 6 A2
181 SAUVAGE PIERRE 1242 8:47:07 6,2 9:40 73 S
182 MARVILLE STÉPHANE 1194 8:47:07 6,2 9:40 74 V1
183 WAGEMANS SARAH 1294 8:49:01 6,2 9:42 9 A1
184 LARUE FABRICE 1171 8:49:12 6,2 9:42 75 V1
185 THUNUS FREDERIC 1262 8:50:25 6,2 9:43 76 V1
186 VAN DER HEIJDEN PETER 1277 8:52:25 6,1 9:46 77 V1
187 VERKUIJLEN WILCO 1290 8:52:34 6,1 9:46 78 V1
188 DEKKERS JOOST 1066 8:52:34 6,1 9:46 21 V2
189 PEFFER VINCENT 1211 8:52:57 6,1 9:46 22 V2
190 BISSOT ERIC 1013 8:53:39 6,1 9:47 23 V2
191 ROCKS MICHAËL 1232 8:55:02 6,1 9:49 79 V1
192 CLAES KAREN 1040 8:55:52 6,1 9:49 1 D
193 VAN BOXTEL FRANK 1271 8:56:19 6,1 9:50 80 V1
194 ABDELKAFI HEDI 1001 8:56:55 6,1 9:51 81 V1
195 DIERENS DENNIS 1089 8:57:28 6,1 9:51 82 V1
196 SACRÉ BENOIT 1239 8:57:28 6,1 9:51 24 V2
197 LAMBERT BENOÎT 1167 8:57:28 6,1 9:51 83 V1
198 OLLEVIER MARIO 1306 8:58:42 6,1 9:53 25 V2
199 BOSGRAAF JAAP SIJE 1021 8:59:36 6,1 9:54 26 V2
200 MOROSO JEAN-FRANÇOIS 1203 9:01:17 6,0 9:55 84 V1
201 LYNEN INGRID 1192 9:07:29 6,0 10:02 7 A2
202 ES YVES 1105 9:08:13 6,0 10:03 27 V2
203 BARGI DARIUS 1006 9:08:23 6,0 10:03 28 V2
204 WILLEMS BRUNO 1302 9:10:07 5,9 10:05 1 V3
205 LORPHÈVRE ERIC 1187 9:11:09 5,9 10:06 85 V1
206 LEMOINE FANNY 1178 9:11:13 5,9 10:06 10 A1
207 VAN DEN EEDE NOELLE 1275 9:11:14 5,9 10:06 8 A2
208 GREVIN PASCAL 1133 9:14:15 5,9 10:10 29 V2
209 BOURGARD GREGORY 1022 9:17:25 5,9 10:13 74 S
210 LEROY STÉPHANIE 1181 9:17:51 5,9 10:14 11 A1
211 HERBOTS KRIS 1145 9:22:35 5,8 10:19 30 V2
212 ADRIANSSENS SERGE 1002 9:23:41 5,8 10:20 2 V3
213 GUERRA DE SOUSA JOAO PAULO 1135 9:26:41 5,8 10:23 86 V1
214 DUCHÊNE MATTHIEU 1095 9:28:47 5,7 10:26 75 S
215 MASFRANCX JONATHAN 1195 9:31:10 5,7 10:28 87 V1
216 ELSEN FRÉDÉRIC 1102 9:32:29 5,7 10:30 88 V1
217 MEIRSMAN BERNARD 1199 9:34:15 5,7 10:32 31 V2
218 THOREZ THOMAS 1261 9:34:15 5,7 10:32 89 V1
219 ISERENTANT CARINE 1153 9:34:20 5,7 10:32 9 A2
220 COBBEN SYLVAIN 1044 9:34:20 5,7 10:32 76 S
221 LANGLET GEOFFREY 1170 9:35:28 5,7 10:33 77 S
222 WENZEL SYLVAIN 1300 9:35:29 5,7 10:33 90 V1
223 GRANDMAISON GREG 1132 9:36:57 5,7 10:35 78 S
224 DUQUESNE SOPHIE 1100 9:37:47 5,7 10:36 12 A1
225 CORBESIER LAURENT 1047 9:42:06 5,6 10:40 91 V1
226 DESCHODT SAMANTHA 1081 9:43:27 5,6 10:42 10 A2
227 WARD DENNIS 1298 9:47:46 5,6 10:47 92 V1
228 FETTWEIS THIERRY 1115 9:51:25 5,5 10:51 3 V3
229 NELSEN FERDINAND 1206 9:51:58 5,5 10:51 4 V3
230 BORENSZTEIN DAMIEN 1019 9:59:17 5,5 10:59 79 S
231 LUX ARNO 1190 9:59:27 5,5 10:59 32 V2
232 SAEN DOMINIQUE 1240 10:01:32 5,4 11:02 33 V2
233 VAN DEN BLEEKEN DAKKE 1273 10:03:10 5,4 11:04 93 V1
234 DUMONT DELPHINE 1097 10:14:40 5,3 11:16 11 A2
235 PIERRE OLIVIER 1217 10:18:29 5,3 11:20 80 S
236 KOECK GERALD 1160 10:18:33 5,3 11:20 81 S
237 DEGRANSART JOHAN 1062 10:24:22 5,2 11:27 94 V1
238 GIBILARO KARINE 1124 10:25:20 5,2 11:28 12 A2
239 CLOSE DOMINIQUE 1043 10:25:20 5,2 11:28 5 V3
240 SCHREURS DENISE 1249 10:30:32 5,2 11:34 2 D
241 TROUILLARD EVY 1266 10:31:01 5,2 11:34 13 A1
242 HORST SCHWENDT 1148 10:35:13 5,1 11:39 34 V2
243 CLAEYS KRISTOF 1042 11:00:41 4,9 12:07 HSC
244 EMPAIN DANIEL 1103 11:00:46 4,9 12:07 95 V1
245 PROOIJEN WILLEM VAN 1224 11:08:46 4,9 12:16 1 V4
246 PIRONNET ERIC 1220 11:11:51 4,9 12:19 35 V2
247 GOZDECKI KARINE 1131 11:18:22 4,8 12:26 13 A2
248 DECLERCQ AIMÉE 1057 11:44:00 4,6 12:55 14 A2
249 GOBERT DOMINIQUE 1126 11:44:00 4,6 12:55 36 V2
250 BODSON JEAN PIERRE 1015 12:17:02 4,4 13:31 37 V2
251 FETTWEIS GAËLLE 1114 12:29:49 4,4 13:45 3 D
252 LAMY STÉPHANIE 1169 12:29:49 4,4 13:45 14 A1
253 DENEFFE PHILIPPE 1074 12:34:23 4,3 13:50 38 V2
254 BORTOLOTTI EMMANUEL 1020 15:10:01 3,6 16:41 96 V1
255 HUET EMMANUEL 1150 15:10:01 3,6 16:41 97 V1